Time;durP1;ratioP1;P1;durP2;ratioP2;P2;SDS_P1;SDS_P2;PMS_P1;PMS_P2;Temp;Humidity;BMP_temperature;BMP_pressure;BME280_temperature;BME280_humidity;BME280_pressure;Samples;Min_cycle;Max_cycle;Signal;HPM_P1;HPM_P2
2023/08/24 00:02:06;;;;;;;8.20;2.80;;;21.80;66.70;;;;;;5022406;28;20021;-67
2023/08/24 00:04:33;;;;;;;7.80;3.20;;;21.70;66.70;;;;;;5023947;28;20041;-67
2023/08/24 00:06:59;;;;;;;6.70;2.70;;;21.70;66.80;;;;;;5020069;28;20022;-67
2023/08/24 00:09:26;;;;;;;6.22;2.70;;;21.70;66.80;;;;;;5018504;28;20060;-67
2023/08/24 00:11:52;;;;;;;6.32;2.58;;;21.70;66.80;;;;;;5026000;28;20350;-67
2023/08/24 00:14:17;;;;;;;6.78;2.90;;;21.70;66.70;;;;;;5025688;28;20025;-67
2023/08/24 00:16:45;;;;;;;7.53;3.08;;;21.70;66.70;;;;;;5020215;28;20021;-67
2023/08/24 00:19:10;;;;;;;6.72;2.85;;;21.70;66.70;;;;;;5022487;28;20022;-67
2023/08/24 00:21:36;;;;;;;7.32;2.97;;;21.70;66.70;;;;;;5021336;28;20028;-67
2023/08/24 00:24:02;;;;;;;5.75;2.60;;;21.70;66.90;;;;;;5023461;28;20439;-67
2023/08/24 00:26:28;;;;;;;7.15;2.80;;;21.70;66.90;;;;;;5006169;28;20021;-67
2023/08/24 00:28:54;;;;;;;6.88;2.78;;;21.70;67.00;;;;;;5026533;28;20354;-67
2023/08/24 00:31:20;;;;;;;8.00;3.03;;;21.70;67.00;;;;;;5021250;28;20021;-67
2023/08/24 00:33:50;;;;;;;7.70;3.22;;;21.70;67.00;;;;;;5023442;28;20037;-67
2023/08/24 00:36:17;;;;;;;7.43;2.75;;;21.70;67.10;;;;;;5023256;28;20973;-67
2023/08/24 00:38:43;;;;;;;6.68;2.70;;;21.70;67.20;;;;;;5035089;28;20104;-67
2023/08/24 00:41:09;;;;;;;6.25;2.80;;;21.70;67.20;;;;;;5019932;28;20176;-66
2023/08/24 00:43:35;;;;;;;7.25;3.10;;;21.60;67.20;;;;;;5023007;28;20029;-66
2023/08/24 00:46:03;;;;;;;9.82;3.42;;;21.60;67.10;;;;;;5022422;28;20033;-66
2023/08/24 00:48:30;;;;;;;8.48;3.40;;;21.70;67.20;;;;;;5038630;28;20061;-66
2023/08/24 00:51:00;;;;;;;8.88;3.55;;;21.70;67.30;;;;;;5035650;28;20063;-66
2023/08/24 00:53:27;;;;;;;6.13;2.83;;;21.60;67.40;;;;;;5022779;28;20159;-67
2023/08/24 00:55:53;;;;;;;6.15;2.67;;;21.60;67.50;;;;;;5023959;28;20033;-66
2023/08/24 00:58:20;;;;;;;8.45;3.35;;;21.60;67.60;;;;;;5038936;28;20363;-66
2023/08/24 01:00:47;;;;;;;6.13;3.20;;;21.60;67.60;;;;;;5022935;28;20021;-66
2023/08/24 01:03:13;;;;;;;6.22;3.38;;;21.60;67.70;;;;;;5037217;28;20048;-66
2023/08/24 01:05:39;;;;;;;6.97;3.45;;;21.60;67.70;;;;;;5018125;28;20366;-66
2023/08/24 01:08:05;;;;;;;6.20;3.28;;;21.60;67.80;;;;;;5018878;28;20029;-67
2023/08/24 01:10:51;;;;;;;9.02;3.55;;;21.60;67.90;;;;;;5021569;28;20026;-66
2023/08/24 01:13:37;;;;;;;7.50;3.58;;;21.60;68.00;;;;;;5017328;28;20041;-66
2023/08/24 01:16:29;;;;;;;7.80;3.50;;;21.60;68.20;;;;;;5006917;28;20128;-66
2023/08/24 01:18:59;;;;;;;7.93;4.10;;;21.50;68.10;;;;;;5019227;28;20068;-67
2023/08/24 01:21:29;;;;;;;8.52;4.05;;;21.60;68.30;;;;;;5024981;28;20041;-66
2023/08/24 01:24:21;;;;;;;8.65;4.00;;;21.50;68.40;;;;;;5025093;28;20443;-66
2023/08/24 01:26:48;;;;;;;7.65;3.97;;;21.50;68.40;;;;;;5040865;28;20025;-66
2023/08/24 01:29:15;;;;;;;9.27;4.20;;;21.50;68.50;;;;;;5024812;28;20029;-67
2023/08/24 01:31:41;;;;;;;6.80;3.80;;;21.50;68.60;;;;;;5022197;28;20041;-66
2023/08/24 01:34:07;;;;;;;7.10;4.15;;;21.50;68.70;;;;;;5023849;28;20017;-66
2023/08/24 01:36:32;;;;;;;10.10;4.13;;;21.50;68.90;;;;;;5056909;28;20034;-67
2023/08/24 01:39:14;;;;;;;9.60;4.05;;;21.50;69.00;;;;;;5025956;28;20033;-67
2023/08/24 01:41:43;;;;;;;13.57;4.07;;;21.50;69.10;;;;;;5025804;28;20038;-67
2023/08/24 01:44:14;;;;;;;9.80;4.47;;;21.50;69.20;;;;;;5048061;28;20099;-67
2023/08/24 01:46:42;;;;;;;9.60;4.45;;;21.50;69.30;;;;;;5026193;28;20026;-67
2023/08/24 01:49:13;;;;;;;8.70;4.45;;;21.50;69.50;;;;;;5047496;28;20094;-67
2023/08/24 01:51:40;;;;;;;11.32;4.03;;;21.50;69.60;;;;;;5028504;28;20363;-67
2023/08/24 01:54:06;;;;;;;8.90;4.28;;;21.40;69.60;;;;;;5027983;28;20025;-67
2023/08/24 01:56:32;;;;;;;8.85;4.63;;;21.40;69.60;;;;;;5026012;28;20025;-66
2023/08/24 01:58:57;;;;;;;7.38;4.15;;;21.40;70.30;;;;;;5024788;28;20029;-67
2023/08/24 02:01:23;;;;;;;8.57;5.03;;;21.40;69.80;;;;;;5047395;28;20026;-66
2023/08/24 02:03:49;;;;;;;8.43;4.20;;;21.40;69.90;;;;;;5029892;28;20042;-66
2023/08/24 02:06:15;;;;;;;10.82;5.97;;;21.50;69.90;;;;;;5026475;28;20108;-67
2023/08/24 02:08:40;;;;;;;8.27;4.55;;;21.40;69.90;;;;;;5025003;28;20056;-67
2023/08/24 02:11:07;;;;;;;9.40;4.88;;;21.50;70.00;;;;;;5025908;28;20025;-67
2023/08/24 02:13:33;;;;;;;8.30;5.03;;;21.50;70.10;;;;;;5025243;28;20045;-67
2023/08/24 02:16:03;;;;;;;8.85;4.85;;;21.40;70.00;;;;;;5020015;28;20030;-67
2023/08/24 02:18:28;;;;;;;8.45;5.18;;;21.50;70.20;;;;;;5013785;28;20045;-67
2023/08/24 02:20:54;;;;;;;8.63;4.72;;;21.50;70.20;;;;;;5008574;28;20026;-67
2023/08/24 02:23:20;;;;;;;10.23;4.75;;;21.50;70.20;;;;;;5023532;28;20025;-66
2023/08/24 02:25:46;;;;;;;8.75;5.13;;;21.50;70.30;;;;;;5027787;28;20084;-66
2023/08/24 02:28:11;;;;;;;10.20;4.93;;;21.50;70.20;;;;;;5026030;28;20025;-66
2023/08/24 02:30:38;;;;;;;8.95;5.20;;;21.50;70.20;;;;;;5028366;28;20356;-67
2023/08/24 02:33:05;;;;;;;7.97;4.78;;;21.50;70.20;;;;;;5023474;28;20414;-67
2023/08/24 02:35:31;;;;;;;9.40;4.88;;;21.50;70.30;;;;;;5026308;28;20040;-66
2023/08/24 02:37:57;;;;;;;9.45;5.00;;;21.50;70.40;;;;;;5022580;28;20418;-67
2023/08/24 02:40:23;;;;;;;9.95;5.63;;;21.50;70.40;;;;;;5021666;28;20026;-67
2023/08/24 02:42:50;;;;;;;8.75;5.03;;;21.40;70.40;;;;;;5049879;28;20425;-66
2023/08/24 02:45:16;;;;;;;10.00;4.85;;;21.40;70.50;;;;;;5023167;28;20045;-67
2023/08/24 02:47:41;;;;;;;10.13;5.43;;;21.50;70.70;;;;;;5045973;28;20029;-67
2023/08/24 02:50:07;;;;;;;10.65;5.55;;;21.50;70.90;;;;;;5024264;28;20092;-66
2023/08/24 02:52:34;;;;;;;11.23;5.68;;;21.50;71.70;;;;;;5033443;28;20022;-66
2023/08/24 02:55:00;;;;;;;10.68;6.00;;;21.40;71.20;;;;;;5050797;28;20493;-67
2023/08/24 02:57:26;;;;;;;10.52;5.85;;;21.40;71.30;;;;;;5036478;28;20090;-66
2023/08/24 02:59:52;;;;;;;8.90;5.57;;;21.40;71.40;;;;;;5022158;28;20108;-66
2023/08/24 03:02:18;;;;;;;9.60;5.25;;;21.40;71.60;;;;;;5024038;28;20059;-66
2023/08/24 03:04:44;;;;;;;8.60;5.20;;;21.40;71.70;;;;;;5017538;28;20049;-66
2023/08/24 03:07:10;;;;;;;12.68;6.28;;;21.40;71.80;;;;;;5028517;28;20458;-66
2023/08/24 03:09:36;;;;;;;10.23;6.43;;;21.40;71.90;;;;;;5015494;28;20153;-66
2023/08/24 03:12:02;;;;;;;10.38;5.85;;;21.40;71.90;;;;;;5034310;28;20125;-66
2023/08/24 03:14:28;;;;;;;12.20;6.25;;;21.40;72.00;;;;;;5049546;28;20033;-67
2023/08/24 03:16:54;;;;;;;9.13;6.40;;;21.40;72.30;;;;;;5026330;28;20038;-66
2023/08/24 03:19:20;;;;;;;9.57;5.93;;;21.30;72.40;;;;;;5032869;28;20029;-66
2023/08/24 03:21:46;;;;;;;10.85;6.38;;;21.40;72.60;;;;;;5018207;28;20021;-66
2023/08/24 03:24:11;;;;;;;10.50;6.03;;;21.30;72.60;;;;;;5029403;28;21696;-67
2023/08/24 03:26:39;;;;;;;10.68;6.22;;;21.30;72.70;;;;;;5012664;28;20032;-67
2023/08/24 03:29:04;;;;;;;10.93;6.63;;;21.30;72.70;;;;;;5034105;28;20030;-67
2023/08/24 03:31:30;;;;;;;9.23;5.82;;;21.30;72.70;;;;;;5025648;28;20391;-67
2023/08/24 03:33:56;;;;;;;10.73;6.18;;;21.30;72.80;;;;;;5030848;28;20044;-67
2023/08/24 03:36:22;;;;;;;11.45;6.50;;;21.30;72.90;;;;;;5031798;28;20014;-66
2023/08/24 03:38:47;;;;;;;12.45;6.95;;;21.30;72.70;;;;;;5018793;28;20443;-66
2023/08/24 03:41:13;;;;;;;9.98;6.35;;;21.30;72.90;;;;;;5026279;28;20517;-66
2023/08/24 03:43:39;;;;;;;10.50;5.97;;;21.20;72.90;;;;;;5046992;28;20105;-66
2023/08/24 03:46:05;;;;;;;10.35;6.88;;;21.20;73.00;;;;;;5022734;28;20171;-66
2023/08/24 03:48:32;;;;;;;12.27;7.25;;;21.20;73.10;;;;;;5021494;28;20025;-66
2023/08/24 03:50:58;;;;;;;11.18;6.68;;;21.20;73.20;;;;;;5024868;28;20513;-66
2023/08/24 03:53:25;;;;;;;11.15;6.75;;;21.20;73.20;;;;;;5027434;28;20462;-67
2023/08/24 03:55:52;;;;;;;10.05;6.35;;;21.20;73.20;;;;;;5046551;28;20032;-66
2023/08/24 03:58:20;;;;;;;15.25;6.78;;;21.20;73.20;;;;;;5027192;28;20092;-67
2023/08/24 04:00:47;;;;;;;10.73;6.55;;;21.20;73.20;;;;;;5015321;28;20105;-67
2023/08/24 04:03:13;;;;;;;9.60;6.18;;;21.20;73.20;;;;;;5024149;28;20128;-67
2023/08/24 04:05:38;;;;;;;10.00;6.35;;;21.20;73.20;;;;;;5044907;28;20061;-66
2023/08/24 04:08:05;;;;;;;9.40;5.70;;;21.10;73.10;;;;;;5024929;28;20025;-66
2023/08/24 04:10:31;;;;;;;13.82;6.97;;;21.20;73.20;;;;;;4999982;28;20502;-66
2023/08/24 04:12:58;;;;;;;11.38;6.25;;;21.10;73.40;;;;;;5027445;28;20529;-66
2023/08/24 04:15:24;;;;;;;10.10;6.20;;;21.10;73.10;;;;;;5025023;28;20509;-67
2023/08/24 04:17:50;;;;;;;8.68;6.07;;;21.10;73.10;;;;;;5025509;28;20017;-67
2023/08/24 04:20:16;;;;;;;10.38;6.03;;;21.10;73.20;;;;;;5020540;28;20071;-67
2023/08/24 04:22:42;;;;;;;9.75;6.60;;;21.10;73.20;;;;;;5020677;28;20033;-66
2023/08/24 04:25:08;;;;;;;11.18;6.82;;;21.10;73.30;;;;;;5018335;28;20398;-67
2023/08/24 04:27:34;;;;;;;10.88;6.68;;;21.10;73.30;;;;;;5024744;28;20033;-67
2023/08/24 04:30:00;;;;;;;11.27;6.68;;;21.10;73.40;;;;;;5019219;28;20038;-66
2023/08/24 04:32:27;;;;;;;10.05;5.93;;;21.10;73.40;;;;;;5022360;28;20040;-67
2023/08/24 04:34:53;;;;;;;10.98;6.13;;;21.10;73.40;;;;;;5036313;28;20056;-66
2023/08/24 04:37:19;;;;;;;9.32;6.07;;;21.00;73.30;;;;;;5017360;28;20045;-66
2023/08/24 04:39:45;;;;;;;12.65;6.53;;;21.00;73.40;;;;;;5020465;28;20100;-66
2023/08/24 04:42:11;;;;;;;11.15;6.28;;;21.00;73.50;;;;;;5019551;28;20025;-68
2023/08/24 04:44:37;;;;;;;11.13;6.40;;;21.00;73.50;;;;;;5017571;28;20038;-68
2023/08/24 04:47:02;;;;;;;10.00;6.75;;;21.00;73.30;;;;;;5024210;28;20045;-68
2023/08/24 04:49:30;;;;;;;11.15;6.07;;;21.00;73.30;;;;;;5006746;28;20040;-68
2023/08/24 04:51:56;;;;;;;10.77;6.72;;;21.00;73.40;;;;;;5015408;28;20029;-68
2023/08/24 04:54:22;;;;;;;11.32;7.10;;;21.00;73.50;;;;;;5029024;28;20026;-70
2023/08/24 04:56:48;;;;;;;10.60;6.28;;;20.90;73.50;;;;;;5031932;28;20432;-70
2023/08/24 04:59:14;;;;;;;10.07;6.55;;;20.90;73.50;;;;;;5035483;28;20052;-69
2023/08/24 05:01:39;;;;;;;10.20;6.65;;;20.90;73.60;;;;;;5033463;28;20022;-69
2023/08/24 05:04:05;;;;;;;10.50;6.85;;;20.90;73.60;;;;;;5037773;28;20044;-66
2023/08/24 05:06:31;;;;;;;11.93;7.07;;;20.90;73.70;;;;;;5013666;28;20362;-67
2023/08/24 05:08:57;;;;;;;10.73;6.60;;;20.90;73.60;;;;;;5025541;28;20109;-68
2023/08/24 05:11:24;;;;;;;10.48;6.57;;;20.90;73.70;;;;;;5012629;28;20026;-68
2023/08/24 05:13:50;;;;;;;11.75;6.50;;;20.90;73.70;;;;;;5030662;28;20033;-68
2023/08/24 05:16:16;;;;;;;10.68;6.75;;;20.90;73.70;;;;;;5025473;28;20041;-68
2023/08/24 05:18:42;;;;;;;9.85;6.32;;;20.90;73.60;;;;;;5012281;28;20026;-68
2023/08/24 05:21:07;;;;;;;11.48;7.07;;;20.90;73.60;;;;;;5030666;28;20219;-68
2023/08/24 05:24:10;;;;;;;11.82;7.18;;;21.00;73.70;;;;;;5033200;28;20033;-69
2023/08/24 05:26:36;;;;;;;11.50;6.78;;;20.90;73.50;;;;;;5020912;28;20374;-68
2023/08/24 05:29:02;;;;;;;10.52;6.88;;;21.00;73.60;;;;;;5033202;28;20018;-68
2023/08/24 05:31:28;;;;;;;9.88;6.70;;;20.90;73.60;;;;;;5027619;28;20412;-68
2023/08/24 05:33:53;;;;;;;10.88;6.57;;;20.90;73.50;;;;;;5017621;28;20021;-68
2023/08/24 05:36:19;;;;;;;12.65;7.25;;;21.00;73.50;;;;;;5015864;28;20487;-67
2023/08/24 05:38:46;;;;;;;13.35;6.68;;;21.00;73.60;;;;;;5049566;28;20350;-68
2023/08/24 05:41:12;;;;;;;11.07;7.05;;;21.00;73.50;;;;;;5021069;28;20018;-68
2023/08/24 05:43:38;;;;;;;10.43;7.43;;;21.00;73.50;;;;;;5017296;28;20040;-68
2023/08/24 05:46:04;;;;;;;10.35;6.57;;;21.00;73.50;;;;;;5018978;28;20030;-67
2023/08/24 05:48:29;;;;;;;9.55;6.65;;;21.00;73.50;;;;;;5025185;28;20435;-68
2023/08/24 05:50:55;;;;;;;11.20;6.97;;;21.10;73.30;;;;;;5010078;28;20098;-68
2023/08/24 05:53:21;;;;;;;12.85;7.20;;;21.10;73.30;;;;;;5027176;28;20433;-67
2023/08/24 05:55:47;;;;;;;10.52;6.90;;;21.10;73.20;;;;;;5036372;28;20431;-67
2023/08/24 05:58:13;;;;;;;10.38;7.50;;;21.10;73.10;;;;;;5054333;28;20382;-67
2023/08/24 06:00:38;;;;;;;11.23;6.93;;;21.20;73.20;;;;;;5020047;28;20029;-68
2023/08/24 06:03:04;;;;;;;11.85;6.97;;;21.20;73.10;;;;;;5024022;28;20477;-68
2023/08/24 06:05:31;;;;;;;10.57;6.85;;;21.20;73.00;;;;;;4997917;28;20053;-68
2023/08/24 06:07:57;;;;;;;8.90;6.50;;;21.30;72.90;;;;;;5015708;28;20041;-69
2023/08/24 06:10:22;;;;;;;10.30;7.13;;;21.30;72.90;;;;;;5014672;28;20029;-69
2023/08/24 06:12:48;;;;;;;10.68;6.88;;;21.40;72.80;;;;;;5045260;28;20175;-69
2023/08/24 06:15:14;;;;;;;11.02;7.05;;;21.40;72.70;;;;;;5017213;28;20030;-68
2023/08/24 06:17:40;;;;;;;12.13;7.18;;;21.50;72.50;;;;;;5021253;28;20030;-69
2023/08/24 06:20:10;;;;;;;10.88;6.68;;;21.80;72.10;;;;;;5021425;28;20386;-68
2023/08/24 06:22:35;;;;;;;11.80;7.47;;;22.20;71.00;;;;;;5025069;28;20071;-66
2023/08/24 06:25:01;;;;;;;12.27;6.93;;;22.60;69.90;;;;;;5020233;28;20025;-66
2023/08/24 06:27:27;;;;;;;11.50;6.70;;;22.90;69.10;;;;;;5021385;28;20033;-66
2023/08/24 06:29:53;;;;;;;12.07;6.70;;;22.90;69.00;;;;;;5027733;28;20034;-67
2023/08/24 06:32:18;;;;;;;10.85;7.07;;;22.80;69.10;;;;;;5020419;28;20055;-66
2023/08/24 06:34:44;;;;;;;16.30;8.15;;;22.80;69.40;;;;;;5027781;28;20029;-66
2023/08/24 06:37:10;;;;;;;18.33;8.00;;;22.90;69.50;;;;;;5031820;28;20443;-66
2023/08/24 06:39:36;;;;;;;10.57;7.63;;;22.90;69.30;;;;;;5020681;28;20032;-67
2023/08/24 06:42:02;;;;;;;11.05;7.00;;;23.00;69.30;;;;;;5016949;28;20088;-66
2023/08/24 06:44:30;;;;;;;14.98;7.75;;;23.00;69.10;;;;;;5018662;28;20109;-67
2023/08/24 06:46:55;;;;;;;27.63;9.02;;;23.10;69.00;;;;;;5018935;28;20116;-66
2023/08/24 06:49:21;;;;;;;25.45;9.48;;;23.10;68.70;;;;;;5018772;28;20025;-66
2023/08/24 06:51:47;;;;;;;15.20;7.50;;;23.10;68.50;;;;;;5018599;28;20412;-66
2023/08/24 06:54:14;;;;;;;12.32;7.78;;;23.20;68.40;;;;;;5042012;28;20506;-67
2023/08/24 06:56:40;;;;;;;13.30;7.30;;;23.30;68.20;;;;;;5020978;28;20094;-67
2023/08/24 06:59:05;;;;;;;16.60;7.38;;;23.40;67.90;;;;;;5021832;28;20087;-67
2023/08/24 07:01:31;;;;;;;11.25;7.53;;;23.50;67.80;;;;;;5045895;28;20025;-67
2023/08/24 07:03:57;;;;;;;12.23;7.03;;;23.60;67.50;;;;;;5018650;28;20061;-67
2023/08/24 07:06:24;;;;;;;9.95;7.03;;;23.70;67.30;;;;;;5020770;28;20037;-66
2023/08/24 07:08:50;;;;;;;11.63;7.55;;;23.80;67.00;;;;;;5019196;28;20018;-67
2023/08/24 07:11:17;;;;;;;11.93;7.75;;;23.90;66.70;;;;;;5041554;28;20041;-66
2023/08/24 07:13:43;;;;;;;12.00;7.05;;;24.00;66.50;;;;;;5026484;28;20113;-67
2023/08/24 07:16:08;;;;;;;12.73;7.97;;;24.10;66.10;;;;;;5027465;28;20136;-67
2023/08/24 07:18:34;;;;;;;13.27;7.85;;;24.20;65.90;;;;;;5020008;28;20041;-67
2023/08/24 07:21:00;;;;;;;10.32;7.03;;;24.30;65.50;;;;;;5029365;28;20040;-67
2023/08/24 07:23:26;;;;;;;12.18;7.05;;;24.40;65.40;;;;;;5021576;28;20075;-67
2023/08/24 07:25:51;;;;;;;11.55;6.75;;;24.50;65.00;;;;;;5020802;28;20021;-67
2023/08/24 07:28:17;;;;;;;11.68;6.88;;;24.70;64.70;;;;;;5021585;28;20029;-67
2023/08/24 07:30:43;;;;;;;11.30;7.05;;;24.80;64.40;;;;;;5026225;28;20447;-67
2023/08/24 07:33:09;;;;;;;12.20;7.60;;;24.90;64.20;;;;;;5018769;28;20026;-66
2023/08/24 07:35:35;;;;;;;10.90;7.15;;;25.00;64.00;;;;;;5047150;28;20030;-66
2023/08/24 07:38:01;;;;;;;11.18;6.82;;;25.10;63.50;;;;;;5020376;28;20075;-67
2023/08/24 07:40:26;;;;;;;11.18;7.18;;;25.20;63.00;;;;;;5029254;28;20029;-66
2023/08/24 07:42:56;;;;;;;13.63;7.63;;;25.30;62.70;;;;;;5025270;28;20461;-66
2023/08/24 07:45:25;;;;;;;11.80;6.85;;;25.30;62.60;;;;;;5024696;28;20040;-66
2023/08/24 07:47:51;;;;;;;12.57;7.30;;;25.40;62.50;;;;;;5023658;28;20040;-67
2023/08/24 07:50:17;;;;;;;11.52;7.43;;;25.50;62.60;;;;;;5026507;28;20107;-66
2023/08/24 07:52:43;;;;;;;11.98;7.25;;;25.60;62.40;;;;;;5010039;28;20038;-67
2023/08/24 07:55:09;;;;;;;10.20;7.38;;;25.70;62.00;;;;;;5024207;28;20042;-67
2023/08/24 07:57:36;;;;;;;10.52;7.00;;;25.90;61.70;;;;;;5030217;28;20336;-67
2023/08/24 08:00:02;;;;;;;9.10;6.43;;;26.00;61.30;;;;;;5024024;28;20089;-68
2023/08/24 08:02:38;;;;;;;11.75;6.80;;;26.10;61.20;;;;;;5027349;28;20112;-67
2023/08/24 08:05:05;;;;;;;10.45;6.95;;;26.30;61.10;;;;;;5024789;28;20439;-67
2023/08/24 08:07:31;;;;;;;13.48;7.32;;;26.30;60.70;;;;;;5039074;28;20033;-67
2023/08/24 08:09:57;;;;;;;11.00;6.50;;;26.50;60.70;;;;;;5020417;28;20044;-67
2023/08/24 08:12:23;;;;;;;13.38;6.82;;;26.60;60.40;;;;;;5023024;28;20412;-67
2023/08/24 08:14:49;;;;;;;12.35;7.60;;;26.60;60.10;;;;;;5010261;28;20053;-67
2023/08/24 08:17:15;;;;;;;9.93;7.07;;;26.70;59.80;;;;;;5017885;28;20013;-67
2023/08/24 08:19:41;;;;;;;9.57;6.53;;;26.80;59.70;;;;;;5025452;28;20087;-66
2023/08/24 08:22:07;;;;;;;10.50;7.18;;;26.90;59.50;;;;;;5017869;28;20083;-67
2023/08/24 08:24:33;;;;;;;10.27;7.20;;;27.00;59.20;;;;;;5017242;28;20068;-68
2023/08/24 08:26:59;;;;;;;12.70;7.30;;;27.00;59.20;;;;;;5029009;28;20037;-67
2023/08/24 08:29:25;;;;;;;9.88;6.38;;;27.00;59.30;;;;;;5021569;28;20040;-67
2023/08/24 08:31:51;;;;;;;10.60;6.88;;;27.00;59.30;;;;;;5026800;28;20029;-67
2023/08/24 08:34:16;;;;;;;12.55;7.47;;;27.00;59.40;;;;;;5033756;28;20366;-67
2023/08/24 08:36:42;;;;;;;10.05;6.85;;;26.90;59.40;;;;;;5035347;28;20108;-67
2023/08/24 08:39:08;;;;;;;11.10;7.50;;;26.90;59.60;;;;;;5034081;28;20032;-67
2023/08/24 08:41:42;;;;;;;12.95;7.60;;;26.80;59.80;;;;;;5045172;28;20018;-67
2023/08/24 08:44:11;;;;;;;10.77;7.28;;;26.70;59.90;;;;;;5033378;28;20053;-67
2023/08/24 08:46:39;;;;;;;11.07;7.90;;;26.70;60.00;;;;;;5034952;28;20025;-67
2023/08/24 08:49:07;;;;;;;13.32;8.10;;;26.70;60.20;;;;;;5033975;28;20033;-67
2023/08/24 08:51:36;;;;;;;13.98;8.07;;;26.70;60.30;;;;;;5033497;28;20056;-67
2023/08/24 08:54:02;;;;;;;10.60;7.40;;;26.70;60.40;;;;;;5027306;28;20054;-67
2023/08/24 08:56:30;;;;;;;11.80;7.80;;;26.70;60.40;;;;;;5027995;28;20044;-67
2023/08/24 08:58:58;;;;;;;13.75;8.18;;;26.70;60.50;;;;;;5033587;28;20018;-68
2023/08/24 09:01:25;;;;;;;12.05;7.22;;;26.70;60.50;;;;;;5031786;28;20063;-67
2023/08/24 09:03:51;;;;;;;11.60;7.13;;;26.70;60.70;;;;;;5033664;28;20179;-67
2023/08/24 09:06:17;;;;;;;11.50;7.13;;;26.80;60.70;;;;;;5034940;28;20116;-67
2023/08/24 09:08:44;;;;;;;10.13;7.35;;;26.90;60.50;;;;;;5034811;28;20116;-67
2023/08/24 09:11:10;;;;;;;10.70;6.80;;;27.10;60.30;;;;;;5034810;28;20535;-67
2023/08/24 09:13:36;;;;;;;12.70;7.13;;;27.10;59.90;;;;;;5020489;28;20125;-67
2023/08/24 09:16:15;;;;;;;11.80;6.95;;;27.30;59.70;;;;;;5018320;28;20037;-67
2023/08/24 09:18:44;;;;;;;11.65;7.30;;;27.40;59.50;;;;;;5023506;28;20079;-67
2023/08/24 09:21:15;;;;;;;11.95;6.95;;;27.40;59.30;;;;;;5034597;28;20033;-67
2023/08/24 09:23:59;;;;;;;11.95;6.97;;;27.50;59.10;;;;;;5032038;28;20026;-67
2023/08/24 09:26:42;;;;;;;12.00;6.72;;;27.50;58.80;;;;;;5034561;28;20026;-67
2023/08/24 09:29:14;;;;;;;10.82;6.75;;;27.50;58.60;;;;;;5034394;28;20021;-67
2023/08/24 09:31:40;;;;;;;10.95;6.35;;;27.50;58.70;;;;;;5034382;28;20362;-67
2023/08/24 09:34:06;;;;;;;11.25;6.05;;;27.60;58.70;;;;;;5032127;28;20022;-68
2023/08/24 09:36:33;;;;;;;10.07;6.22;;;27.60;58.50;;;;;;5033995;28;20025;-67
2023/08/24 09:39:04;;;;;;;14.25;6.63;;;27.60;58.20;;;;;;5034127;28;20481;-67
2023/08/24 09:41:50;;;;;;;13.70;7.28;;;27.80;58.40;;;;;;5033575;28;20025;-67
2023/08/24 09:44:19;;;;;;;11.98;6.82;;;27.80;58.50;;;;;;5022303;28;20018;-67
2023/08/24 09:46:45;;;;;;;10.13;6.88;;;27.90;58.60;;;;;;5029747;28;20022;-68
2023/08/24 09:49:11;;;;;;;14.48;7.97;;;28.10;58.60;;;;;;5033502;28;20098;-67
2023/08/24 09:51:39;;;;;;;13.73;7.35;;;28.10;58.40;;;;;;5020704;28;20025;-67
2023/08/24 09:54:10;;;;;;;15.18;7.88;;;28.10;58.00;;;;;;5036731;28;20022;-67
2023/08/24 09:56:40;;;;;;;10.82;7.60;;;28.20;57.90;;;;;;5029640;28;20038;-67
2023/08/24 09:59:21;;;;;;;13.52;7.00;;;28.20;57.80;;;;;;5036047;28;20018;-68
2023/08/24 10:01:48;;;;;;;12.73;7.50;;;28.20;57.90;;;;;;5038172;28;20087;-68
2023/08/24 10:04:18;;;;;;;13.35;6.95;;;28.20;58.00;;;;;;5037625;28;20017;-68
2023/08/24 10:06:49;;;;;;;10.37;7.03;;;28.20;58.10;;;;;;5035308;28;20036;-68
2023/08/24 10:09:21;;;;;;;11.38;6.82;;;28.10;58.40;;;;;;5024291;28;20527;-67
2023/08/24 10:11:56;;;;;;;10.50;6.75;;;27.90;58.40;;;;;;5037847;28;20029;-67
2023/08/24 10:14:36;;;;;;;13.52;7.72;;;27.80;58.40;;;;;;5037606;28;20034;-67
2023/08/24 10:17:02;;;;;;;16.00;7.55;;;27.60;58.40;;;;;;5035705;28;20037;-67
2023/08/24 10:19:29;;;;;;;12.77;7.13;;;27.50;58.70;;;;;;5037527;28;20069;-68
2023/08/24 10:21:57;;;;;;;13.23;6.65;;;27.40;59.00;;;;;;5032367;28;20114;-67
2023/08/24 10:24:23;;;;;;;10.23;6.68;;;27.30;59.30;;;;;;5037324;28;20026;-68
2023/08/24 10:26:50;;;;;;;11.63;7.20;;;27.10;59.40;;;;;;5036411;28;20021;-67
2023/08/24 10:29:17;;;;;;;11.57;7.25;;;27.00;59.60;;;;;;5036782;28;20104;-67
2023/08/24 10:31:48;;;;;;;11.40;7.20;;;26.90;59.70;;;;;;5036505;28;20037;-67
2023/08/24 10:34:14;;;;;;;11.77;6.75;;;26.90;59.80;;;;;;5037300;28;20033;-67
2023/08/24 10:36:40;;;;;;;11.93;6.70;;;26.80;59.90;;;;;;5036297;28;20025;-67
2023/08/24 10:39:06;;;;;;;11.43;6.60;;;26.80;60.00;;;;;;5036026;28;20446;-67
2023/08/24 10:41:52;;;;;;;10.48;6.85;;;26.70;60.10;;;;;;5036898;28;20021;-67
2023/08/24 10:44:38;;;;;;;10.77;6.88;;;26.70;60.10;;;;;;5037260;28;20032;-67
2023/08/24 10:47:18;;;;;;;11.00;6.70;;;26.60;60.40;;;;;;5025962;28;20381;-67
2023/08/24 10:50:05;;;;;;;11.18;6.60;;;26.60;60.90;;;;;;5019512;28;20458;-67
2023/08/24 10:52:36;;;;;;;10.38;7.53;;;26.50;61.00;;;;;;5036632;28;20038;-67
2023/08/24 10:55:03;;;;;;;;;;;26.40;61.30;;;;;;5036258;28;20112;-67
2023/08/24 10:57:39;;;;;;;9.30;6.15;;;26.30;61.40;;;;;;5034283;28;19917;-67
2023/08/24 11:00:06;;;;;;;10.55;6.70;;;26.20;62.00;;;;;;5035920;28;20025;-67
2023/08/24 11:02:43;;;;;;;13.20;8.05;;;26.10;62.40;;;;;;5035909;28;20026;-67
2023/08/24 11:05:30;;;;;;;12.25;6.43;;;26.10;62.80;;;;;;5018981;28;20037;-67
2023/08/24 11:07:59;;;;;;;12.23;7.40;;;26.00;63.20;;;;;;5036697;28;20130;-68
2023/08/24 11:10:30;;;;;;;10.30;6.82;;;26.00;63.50;;;;;;5036532;28;20068;-67
2023/08/24 11:13:19;;;;;;;11.98;7.13;;;25.90;63.40;;;;;;5035832;28;20037;-67
2023/08/24 11:15:46;;;;;;;10.15;6.70;;;25.90;63.30;;;;;;5052082;28;20454;-67
2023/08/24 11:18:26;;;;;;;10.57;6.68;;;25.90;63.40;;;;;;5029850;28;20083;-67
2023/08/24 11:21:05;;;;;;;11.73;6.32;;;25.90;63.40;;;;;;5036505;28;20445;-67
2023/08/24 11:23:31;;;;;;;13.30;6.43;;;25.90;63.60;;;;;;5019082;28;20036;-67
2023/08/24 11:25:59;;;;;;;10.35;6.22;;;25.90;63.60;;;;;;5036415;28;20074;-67
2023/08/24 11:28:29;;;;;;;10.13;5.63;;;25.90;63.60;;;;;;5035783;28;20041;-67
2023/08/24 11:30:56;;;;;;;12.20;6.88;;;25.90;63.80;;;;;;5043478;28;20075;-67
2023/08/24 11:33:29;;;;;;;11.43;6.25;;;25.80;63.80;;;;;;5038846;28;20044;-67
2023/08/24 11:35:55;;;;;;;9.75;5.78;;;25.80;64.00;;;;;;5035679;28;20064;-67
2023/08/24 11:38:21;;;;;;;11.75;6.22;;;25.80;63.90;;;;;;5034106;28;20068;-67
2023/08/24 11:40:46;;;;;;;10.98;6.13;;;25.80;63.70;;;;;;5034849;28;20022;-67
2023/08/24 11:43:12;;;;;;;9.10;5.40;;;25.90;64.30;;;;;;5036097;28;20045;-67
2023/08/24 11:45:40;;;;;;;11.32;6.45;;;25.90;63.70;;;;;;5034725;28;20462;-67
2023/08/24 11:48:07;;;;;;;11.35;6.43;;;26.00;63.90;;;;;;5033823;28;20029;-68
2023/08/24 11:50:36;;;;;;;11.13;6.72;;;26.00;64.10;;;;;;5034686;28;20048;-67
2023/08/24 11:53:02;;;;;;;11.15;6.00;;;26.00;63.90;;;;;;5034639;28;20040;-67
2023/08/24 11:55:28;;;;;;;9.90;5.88;;;26.00;63.70;;;;;;5018240;28;20025;-68
2023/08/24 11:57:55;;;;;;;10.10;6.03;;;26.00;63.80;;;;;;5034020;28;20029;-67
2023/08/24 12:00:22;;;;;;;10.05;5.57;;;26.00;63.80;;;;;;5035062;28;20034;-67
2023/08/24 12:02:48;;;;;;;10.05;5.90;;;26.00;63.80;;;;;;5035552;28;20025;-67
2023/08/24 12:05:25;;;;;;;11.07;6.20;;;26.10;63.90;;;;;;5033456;28;20099;-67
2023/08/24 12:07:53;;;;;;;12.65;7.68;;;26.10;63.80;;;;;;5033573;28;20359;-67
2023/08/24 12:10:19;;;;;;;12.63;7.03;;;26.20;63.60;;;;;;5026593;28;20143;-68
2023/08/24 12:12:45;;;;;;;12.32;6.82;;;26.20;63.50;;;;;;5057200;28;20096;-67
2023/08/24 12:15:19;;;;;;;12.88;6.72;;;26.20;63.30;;;;;;5025945;28;21394;-68
2023/08/24 12:17:46;;;;;;;12.35;5.38;;;26.30;63.30;;;;;;5021400;28;20021;-68
2023/08/24 12:20:22;;;;;;;11.43;7.10;;;26.30;63.20;;;;;;5016219;28;20045;-68
2023/08/24 12:22:53;;;;;;;11.70;6.18;;;26.30;62.90;;;;;;5020742;28;20031;-68
2023/08/24 12:25:22;;;;;;;11.30;5.70;;;26.30;63.00;;;;;;5016622;28;20056;-68
2023/08/24 12:27:48;;;;;;;14.48;6.53;;;26.30;63.00;;;;;;5019231;28;20440;-68
2023/08/24 12:30:13;;;;;;;10.45;6.57;;;26.30;63.20;;;;;;5021052;28;20072;-68
2023/08/24 12:32:47;;;;;;;12.45;5.85;;;26.30;63.40;;;;;;5019476;28;20481;-69
2023/08/24 12:35:14;;;;;;;10.48;6.63;;;26.30;63.40;;;;;;5017752;28;20133;-68
2023/08/24 12:37:41;;;;;;;9.82;6.60;;;26.30;63.40;;;;;;5026597;28;20113;-68
2023/08/24 12:40:08;;;;;;;11.50;5.63;;;26.20;63.60;;;;;;5034907;28;20033;-68
2023/08/24 12:42:33;;;;;;;11.60;5.88;;;26.20;63.80;;;;;;5048777;28;20025;-67
2023/08/24 12:44:59;;;;;;;10.55;5.88;;;26.20;64.00;;;;;;5017643;28;20402;-68